sensor_id;sensor_type;location;lat;lon;timestamp;P1;durP1;ratioP1;P2;durP2;ratioP2
75165;SDS011;63747;48.042;10.088;2023-09-18T00:02:07;5.50;;;4.38;;
75165;SDS011;63747;48.042;10.088;2023-09-18T00:05:08;5.70;;;4.32;;
75165;SDS011;63747;48.042;10.088;2023-09-18T00:08:09;5.85;;;3.88;;
75165;SDS011;63747;48.042;10.088;2023-09-18T00:11:10;6.22;;;4.40;;
75165;SDS011;63747;48.042;10.088;2023-09-18T00:14:11;6.28;;;3.45;;
75165;SDS011;63747;48.042;10.088;2023-09-18T00:17:12;4.45;;;3.53;;
75165;SDS011;63747;48.042;10.088;2023-09-18T00:20:13;3.83;;;3.40;;
75165;SDS011;63747;48.042;10.088;2023-09-18T00:23:16;4.25;;;3.78;;
75165;SDS011;63747;48.042;10.088;2023-09-18T00:26:17;6.15;;;4.25;;
75165;SDS011;63747;48.042;10.088;2023-09-18T00:29:18;6.50;;;4.38;;
75165;SDS011;63747;48.042;10.088;2023-09-18T00:32:19;6.60;;;5.00;;
75165;SDS011;63747;48.042;10.088;2023-09-18T00:35:20;5.93;;;5.32;;
75165;SDS011;63747;48.042;10.088;2023-09-18T00:38:23;5.97;;;5.47;;
75165;SDS011;63747;48.042;10.088;2023-09-18T00:41:23;6.07;;;5.47;;
75165;SDS011;63747;48.042;10.088;2023-09-18T00:44:24;6.88;;;5.25;;
75165;SDS011;63747;48.042;10.088;2023-09-18T00:47:26;5.82;;;5.10;;
75165;SDS011;63747;48.042;10.088;2023-09-18T00:50:27;5.85;;;5.22;;
75165;SDS011;63747;48.042;10.088;2023-09-18T00:53:28;6.75;;;5.07;;
75165;SDS011;63747;48.042;10.088;2023-09-18T00:56:28;5.68;;;5.07;;
75165;SDS011;63747;48.042;10.088;2023-09-18T00:59:29;5.88;;;4.88;;
75165;SDS011;63747;48.042;10.088;2023-09-18T01:02:31;6.57;;;5.43;;
75165;SDS011;63747;48.042;10.088;2023-09-18T01:05:32;5.90;;;5.30;;
75165;SDS011;63747;48.042;10.088;2023-09-18T01:08:33;6.03;;;4.95;;
75165;SDS011;63747;48.042;10.088;2023-09-18T01:18:23;5.32;;;4.10;;
75165;SDS011;63747;48.042;10.088;2023-09-18T01:21:23;4.43;;;4.03;;
75165;SDS011;63747;48.042;10.088;2023-09-18T01:24:24;5.45;;;4.57;;
75165;SDS011;63747;48.042;10.088;2023-09-18T01:27:25;5.32;;;4.82;;
75165;SDS011;63747;48.042;10.088;2023-09-18T01:30:25;5.22;;;4.80;;
75165;SDS011;63747;48.042;10.088;2023-09-18T01:33:26;5.07;;;4.45;;
75165;SDS011;63747;48.042;10.088;2023-09-18T01:36:28;5.80;;;4.35;;
75165;SDS011;63747;48.042;10.088;2023-09-18T01:39:30;4.82;;;4.38;;
75165;SDS011;63747;48.042;10.088;2023-09-18T01:42:33;5.95;;;4.38;;
75165;SDS011;63747;48.042;10.088;2023-09-18T01:45:35;4.65;;;4.25;;
75165;SDS011;63747;48.042;10.088;2023-09-18T01:48:36;4.68;;;4.20;;
75165;SDS011;63747;48.042;10.088;2023-09-18T01:54:38;3.80;;;3.50;;
75165;SDS011;63747;48.042;10.088;2023-09-18T02:00:41;4.95;;;3.42;;
75165;SDS011;63747;48.042;10.088;2023-09-18T02:03:42;5.28;;;3.63;;
75165;SDS011;63747;48.042;10.088;2023-09-18T02:06:43;5.30;;;4.03;;
75165;SDS011;63747;48.042;10.088;2023-09-18T02:09:44;6.93;;;4.25;;
75165;SDS011;63747;48.042;10.088;2023-09-18T02:12:45;5.07;;;4.18;;
75165;SDS011;63747;48.042;10.088;2023-09-18T02:15:46;7.28;;;4.63;;
75165;SDS011;63747;48.042;10.088;2023-09-18T02:18:47;7.00;;;4.38;;
75165;SDS011;63747;48.042;10.088;2023-09-18T02:21:48;5.30;;;4.80;;
75165;SDS011;63747;48.042;10.088;2023-09-18T02:24:48;6.55;;;5.00;;
75165;SDS011;63747;48.042;10.088;2023-09-18T02:27:50;5.20;;;4.70;;
75165;SDS011;63747;48.042;10.088;2023-09-18T02:30:51;5.75;;;5.15;;
75165;SDS011;63747;48.042;10.088;2023-09-18T02:33:52;6.05;;;4.22;;
75165;SDS011;63747;48.042;10.088;2023-09-18T02:36:52;7.90;;;4.28;;
75165;SDS011;63747;48.042;10.088;2023-09-18T02:39:53;7.07;;;4.40;;
75165;SDS011;63747;48.042;10.088;2023-09-18T02:42:54;5.13;;;3.85;;
75165;SDS011;63747;48.042;10.088;2023-09-18T02:45:54;5.05;;;4.15;;
75165;SDS011;63747;48.042;10.088;2023-09-18T02:48:55;8.02;;;4.47;;
75165;SDS011;63747;48.042;10.088;2023-09-18T02:51:56;5.85;;;4.20;;
75165;SDS011;63747;48.042;10.088;2023-09-18T02:54:56;5.88;;;4.03;;
75165;SDS011;63747;48.042;10.088;2023-09-18T02:57:57;5.40;;;4.40;;
75165;SDS011;63747;48.042;10.088;2023-09-18T03:00:59;4.75;;;4.07;;
75165;SDS011;63747;48.042;10.088;2023-09-18T03:04:00;7.85;;;4.45;;
75165;SDS011;63747;48.042;10.088;2023-09-18T03:07:01;5.20;;;4.70;;
75165;SDS011;63747;48.042;10.088;2023-09-18T03:10:02;5.63;;;4.43;;
75165;SDS011;63747;48.042;10.088;2023-09-18T03:13:04;5.38;;;4.30;;
75165;SDS011;63747;48.042;10.088;2023-09-18T03:16:06;4.40;;;4.00;;
75165;SDS011;63747;48.042;10.088;2023-09-18T03:19:07;6.57;;;4.13;;
75165;SDS011;63747;48.042;10.088;2023-09-18T03:22:07;5.40;;;4.25;;
75165;SDS011;63747;48.042;10.088;2023-09-18T03:25:08;5.25;;;4.30;;
75165;SDS011;63747;48.042;10.088;2023-09-18T03:28:10;6.90;;;4.30;;
75165;SDS011;63747;48.042;10.088;2023-09-18T03:31:10;4.90;;;3.85;;
75165;SDS011;63747;48.042;10.088;2023-09-18T03:34:11;7.43;;;4.00;;
75165;SDS011;63747;48.042;10.088;2023-09-18T03:37:12;4.50;;;4.00;;
75165;SDS011;63747;48.042;10.088;2023-09-18T03:40:13;6.05;;;4.65;;
75165;SDS011;63747;48.042;10.088;2023-09-18T03:43:14;9.25;;;4.93;;
75165;SDS011;63747;48.042;10.088;2023-09-18T03:46:14;4.68;;;4.10;;
75165;SDS011;63747;48.042;10.088;2023-09-18T03:49:15;5.35;;;4.28;;
75165;SDS011;63747;48.042;10.088;2023-09-18T03:52:16;4.45;;;3.88;;
75165;SDS011;63747;48.042;10.088;2023-09-18T03:55:17;5.07;;;3.70;;
75165;SDS011;63747;48.042;10.088;2023-09-18T03:58:17;5.07;;;3.65;;
75165;SDS011;63747;48.042;10.088;2023-09-18T04:01:18;5.75;;;3.80;;
75165;SDS011;63747;48.042;10.088;2023-09-18T04:04:19;5.57;;;3.83;;
75165;SDS011;63747;48.042;10.088;2023-09-18T04:07:19;5.68;;;3.80;;
75165;SDS011;63747;48.042;10.088;2023-09-18T04:10:20;6.13;;;3.28;;
75165;SDS011;63747;48.042;10.088;2023-09-18T04:13:23;4.35;;;3.53;;
75165;SDS011;63747;48.042;10.088;2023-09-18T04:16:23;7.18;;;4.00;;
75165;SDS011;63747;48.042;10.088;2023-09-18T04:19:24;8.10;;;4.03;;
75165;SDS011;63747;48.042;10.088;2023-09-18T04:22:25;3.33;;;3.03;;
75165;SDS011;63747;48.042;10.088;2023-09-18T04:25:25;4.82;;;4.13;;
75165;SDS011;63747;48.042;10.088;2023-09-18T04:28:26;5.65;;;3.42;;
75165;SDS011;63747;48.042;10.088;2023-09-18T04:31:27;6.10;;;3.88;;
75165;SDS011;63747;48.042;10.088;2023-09-18T04:37:28;5.40;;;2.97;;
75165;SDS011;63747;48.042;10.088;2023-09-18T04:40:29;6.32;;;4.00;;
75165;SDS011;63747;48.042;10.088;2023-09-18T04:43:33;6.80;;;3.78;;
75165;SDS011;63747;48.042;10.088;2023-09-18T04:46:37;6.25;;;3.90;;
75165;SDS011;63747;48.042;10.088;2023-09-18T04:49:38;6.30;;;4.15;;
75165;SDS011;63747;48.042;10.088;2023-09-18T04:52:39;8.68;;;4.47;;
75165;SDS011;63747;48.042;10.088;2023-09-18T04:55:41;7.68;;;3.55;;
75165;SDS011;63747;48.042;10.088;2023-09-18T04:58:41;8.65;;;3.88;;
75165;SDS011;63747;48.042;10.088;2023-09-18T05:01:42;11.23;;;3.95;;
75165;SDS011;63747;48.042;10.088;2023-09-18T05:04:44;7.15;;;3.78;;
75165;SDS011;63747;48.042;10.088;2023-09-18T05:07:44;9.27;;;3.92;;
75165;SDS011;63747;48.042;10.088;2023-09-18T05:10:45;8.25;;;3.58;;
75165;SDS011;63747;48.042;10.088;2023-09-18T05:13:47;7.10;;;3.67;;
75165;SDS011;63747;48.042;10.088;2023-09-18T05:16:49;6.70;;;3.60;;
75165;SDS011;63747;48.042;10.088;2023-09-18T05:19:50;9.38;;;4.13;;
75165;SDS011;63747;48.042;10.088;2023-09-18T05:22:51;7.88;;;3.47;;
75165;SDS011;63747;48.042;10.088;2023-09-18T05:25:55;8.77;;;3.63;;
75165;SDS011;63747;48.042;10.088;2023-09-18T05:28:56;7.53;;;4.45;;
75165;SDS011;63747;48.042;10.088;2023-09-18T05:34:58;13.83;;;4.03;;
75165;SDS011;63747;48.042;10.088;2023-09-18T05:38:04;8.05;;;3.90;;
75165;SDS011;63747;48.042;10.088;2023-09-18T05:41:05;24.70;;;4.40;;
75165;SDS011;63747;48.042;10.088;2023-09-18T05:44:06;24.90;;;4.68;;
75165;SDS011;63747;48.042;10.088;2023-09-18T05:47:07;18.52;;;4.47;;
75165;SDS011;63747;48.042;10.088;2023-09-18T05:50:09;17.88;;;3.83;;
75165;SDS011;63747;48.042;10.088;2023-09-18T05:53:10;14.02;;;3.95;;
75165;SDS011;63747;48.042;10.088;2023-09-18T05:59:12;11.10;;;3.97;;
75165;SDS011;63747;48.042;10.088;2023-09-18T06:02:12;13.48;;;4.60;;
75165;SDS011;63747;48.042;10.088;2023-09-18T06:05:13;12.57;;;3.55;;
75165;SDS011;63747;48.042;10.088;2023-09-18T06:08:15;15.35;;;3.85;;
75165;SDS011;63747;48.042;10.088;2023-09-18T06:11:16;15.45;;;4.03;;
75165;SDS011;63747;48.042;10.088;2023-09-18T06:14:17;16.27;;;4.20;;
75165;SDS011;63747;48.042;10.088;2023-09-18T06:17:18;22.15;;;4.22;;
75165;SDS011;63747;48.042;10.088;2023-09-18T06:20:19;10.00;;;4.03;;
75165;SDS011;63747;48.042;10.088;2023-09-18T06:23:19;6.03;;;3.20;;
75165;SDS011;63747;48.042;10.088;2023-09-18T06:26:20;8.25;;;3.45;;
75165;SDS011;63747;48.042;10.088;2023-09-18T06:29:21;8.93;;;2.83;;
75165;SDS011;63747;48.042;10.088;2023-09-18T06:32:22;9.15;;;3.33;;
75165;SDS011;63747;48.042;10.088;2023-09-18T06:35:23;7.68;;;3.20;;
75165;SDS011;63747;48.042;10.088;2023-09-18T06:38:23;10.68;;;3.03;;
75165;SDS011;63747;48.042;10.088;2023-09-18T06:41:24;9.05;;;3.20;;
75165;SDS011;63747;48.042;10.088;2023-09-18T06:44:25;7.30;;;3.25;;
75165;SDS011;63747;48.042;10.088;2023-09-18T06:47:25;10.93;;;4.20;;
75165;SDS011;63747;48.042;10.088;2023-09-18T06:50:26;5.00;;;3.08;;
75165;SDS011;63747;48.042;10.088;2023-09-18T06:53:27;10.75;;;3.83;;
75165;SDS011;63747;48.042;10.088;2023-09-18T06:56:28;6.50;;;3.53;;
75165;SDS011;63747;48.042;10.088;2023-09-18T06:59:29;9.57;;;3.92;;
75165;SDS011;63747;48.042;10.088;2023-09-18T07:02:30;7.53;;;3.33;;
75165;SDS011;63747;48.042;10.088;2023-09-18T07:08:31;9.37;;;3.00;;
75165;SDS011;63747;48.042;10.088;2023-09-18T07:11:33;8.13;;;3.10;;
75165;SDS011;63747;48.042;10.088;2023-09-18T07:14:34;9.38;;;3.55;;
75165;SDS011;63747;48.042;10.088;2023-09-18T07:20:36;23.70;;;4.93;;
75165;SDS011;63747;48.042;10.088;2023-09-18T07:26:37;18.60;;;5.00;;
75165;SDS011;63747;48.042;10.088;2023-09-18T07:32:39;9.63;;;3.50;;
75165;SDS011;63747;48.042;10.088;2023-09-18T07:35:40;11.77;;;3.50;;
75165;SDS011;63747;48.042;10.088;2023-09-18T07:41:43;7.65;;;3.35;;
75165;SDS011;63747;48.042;10.088;2023-09-18T07:47:44;18.47;;;3.37;;
75165;SDS011;63747;48.042;10.088;2023-09-18T07:53:46;10.73;;;3.03;;
75165;SDS011;63747;48.042;10.088;2023-09-18T07:59:47;10.87;;;3.27;;
75165;SDS011;63747;48.042;10.088;2023-09-18T08:05:51;10.05;;;3.17;;
75165;SDS011;63747;48.042;10.088;2023-09-18T08:08:52;8.80;;;2.72;;
75165;SDS011;63747;48.042;10.088;2023-09-18T08:14:55;12.00;;;2.90;;
75165;SDS011;63747;48.042;10.088;2023-09-18T08:17:58;13.13;;;3.05;;
75165;SDS011;63747;48.042;10.088;2023-09-18T08:24:00;10.23;;;2.90;;
75165;SDS011;63747;48.042;10.088;2023-09-18T08:30:01;14.10;;;3.37;;
75165;SDS011;63747;48.042;10.088;2023-09-18T08:36:03;7.22;;;2.90;;
75165;SDS011;63747;48.042;10.088;2023-09-18T08:42:07;11.75;;;3.08;;
75165;SDS011;63747;48.042;10.088;2023-09-18T08:45:12;10.43;;;2.97;;
75165;SDS011;63747;48.042;10.088;2023-09-18T08:48:20;7.93;;;3.08;;
75165;SDS011;63747;48.042;10.088;2023-09-18T08:51:21;12.57;;;3.42;;
75165;SDS011;63747;48.042;10.088;2023-09-18T08:54:23;9.45;;;2.83;;
75165;SDS011;63747;48.042;10.088;2023-09-18T08:57:24;10.95;;;2.85;;
75165;SDS011;63747;48.042;10.088;2023-09-18T09:00:27;9.38;;;2.67;;
75165;SDS011;63747;48.042;10.088;2023-09-18T09:03:29;9.05;;;2.70;;
75165;SDS011;63747;48.042;10.088;2023-09-18T09:06:30;6.65;;;3.03;;
75165;SDS011;63747;48.042;10.088;2023-09-18T09:09:31;10.60;;;2.67;;
75165;SDS011;63747;48.042;10.088;2023-09-18T09:15:48;7.80;;;2.30;;
75165;SDS011;63747;48.042;10.088;2023-09-18T09:18:50;8.88;;;2.20;;
75165;SDS011;63747;48.042;10.088;2023-09-18T09:21:51;5.45;;;2.00;;
75165;SDS011;63747;48.042;10.088;2023-09-18T09:24:53;7.97;;;2.20;;
75165;SDS011;63747;48.042;10.088;2023-09-18T09:27:54;7.75;;;2.00;;
75165;SDS011;63747;48.042;10.088;2023-09-18T09:30:59;9.65;;;1.83;;
75165;SDS011;63747;48.042;10.088;2023-09-18T09:34:05;3.58;;;1.60;;
75165;SDS011;63747;48.042;10.088;2023-09-18T09:37:06;7.78;;;1.88;;
75165;SDS011;63747;48.042;10.088;2023-09-18T09:40:07;6.72;;;2.05;;
75165;SDS011;63747;48.042;10.088;2023-09-18T09:43:09;6.18;;;1.98;;
75165;SDS011;63747;48.042;10.088;2023-09-18T09:46:16;5.35;;;1.77;;
75165;SDS011;63747;48.042;10.088;2023-09-18T09:49:18;10.85;;;2.17;;
75165;SDS011;63747;48.042;10.088;2023-09-18T09:52:24;7.22;;;2.00;;
75165;SDS011;63747;48.042;10.088;2023-09-18T09:55:27;4.72;;;1.52;;
75165;SDS011;63747;48.042;10.088;2023-09-18T09:58:30;7.93;;;1.90;;
75165;SDS011;63747;48.042;10.088;2023-09-18T10:01:31;7.22;;;2.15;;
75165;SDS011;63747;48.042;10.088;2023-09-18T10:07:36;6.38;;;1.85;;
75165;SDS011;63747;48.042;10.088;2023-09-18T10:10:40;6.18;;;1.83;;
75165;SDS011;63747;48.042;10.088;2023-09-18T10:13:47;6.85;;;2.00;;
75165;SDS011;63747;48.042;10.088;2023-09-18T10:16:50;4.93;;;1.90;;
75165;SDS011;63747;48.042;10.088;2023-09-18T10:23:12;5.43;;;1.83;;
75165;SDS011;63747;48.042;10.088;2023-09-18T10:26:24;7.32;;;2.17;;
75165;SDS011;63747;48.042;10.088;2023-09-18T10:29:29;4.93;;;1.85;;
75165;SDS011;63747;48.042;10.088;2023-09-18T10:32:31;7.53;;;2.20;;
75165;SDS011;63747;48.042;10.088;2023-09-18T10:35:33;7.10;;;2.00;;
75165;SDS011;63747;48.042;10.088;2023-09-18T10:38:35;10.18;;;2.25;;
75165;SDS011;63747;48.042;10.088;2023-09-18T10:41:38;9.00;;;2.53;;
75165;SDS011;63747;48.042;10.088;2023-09-18T10:44:41;4.97;;;1.90;;
75165;SDS011;63747;48.042;10.088;2023-09-18T10:50:47;5.82;;;1.70;;
75165;SDS011;63747;48.042;10.088;2023-09-18T10:53:49;6.45;;;1.60;;
75165;SDS011;63747;48.042;10.088;2023-09-18T10:59:51;7.78;;;1.63;;
75165;SDS011;63747;48.042;10.088;2023-09-18T11:06:12;3.22;;;1.13;;
75165;SDS011;63747;48.042;10.088;2023-09-18T11:09:19;2.97;;;1.23;;
75165;SDS011;63747;48.042;10.088;2023-09-18T11:12:41;2.97;;;1.30;;
75165;SDS011;63747;48.042;10.088;2023-09-18T11:15:44;3.70;;;1.42;;
75165;SDS011;63747;48.042;10.088;2023-09-18T11:21:46;3.58;;;1.13;;
75165;SDS011;63747;48.042;10.088;2023-09-18T11:27:54;2.90;;;0.80;;
75165;SDS011;63747;48.042;10.088;2023-09-18T11:30:58;3.28;;;1.08;;
75165;SDS011;63747;48.042;10.088;2023-09-18T11:34:00;1.50;;;0.73;;
75165;SDS011;63747;48.042;10.088;2023-09-18T11:37:20;2.40;;;0.90;;
75165;SDS011;63747;48.042;10.088;2023-09-18T11:40:32;2.20;;;0.90;;
75165;SDS011;63747;48.042;10.088;2023-09-18T11:43:38;1.83;;;0.70;;
75165;SDS011;63747;48.042;10.088;2023-09-18T11:46:40;2.13;;;0.80;;
75165;SDS011;63747;48.042;10.088;2023-09-18T11:49:52;2.28;;;0.75;;
75165;SDS011;63747;48.042;10.088;2023-09-18T11:52:58;1.92;;;0.80;;
75165;SDS011;63747;48.042;10.088;2023-09-18T11:58:59;3.65;;;0.90;;
75165;SDS011;63747;48.042;10.088;2023-09-18T12:02:04;3.08;;;0.85;;
75165;SDS011;63747;48.042;10.088;2023-09-18T12:05:13;3.28;;;0.60;;
75165;SDS011;63747;48.042;10.088;2023-09-18T12:08:15;2.92;;;0.77;;
75165;SDS011;63747;48.042;10.088;2023-09-18T12:11:17;2.50;;;0.80;;
75165;SDS011;63747;48.042;10.088;2023-09-18T12:14:20;3.20;;;1.20;;
75165;SDS011;63747;48.042;10.088;2023-09-18T12:17:21;5.15;;;1.00;;
75165;SDS011;63747;48.042;10.088;2023-09-18T12:23:22;2.90;;;1.20;;
75165;SDS011;63747;48.042;10.088;2023-09-18T12:26:24;1.98;;;1.10;;
75165;SDS011;63747;48.042;10.088;2023-09-18T12:29:26;3.53;;;1.10;;
75165;SDS011;63747;48.042;10.088;2023-09-18T12:35:29;2.00;;;1.00;;
75165;SDS011;63747;48.042;10.088;2023-09-18T12:38:30;1.77;;;1.08;;
75165;SDS011;63747;48.042;10.088;2023-09-18T12:41:32;3.25;;;1.17;;
75165;SDS011;63747;48.042;10.088;2023-09-18T12:47:34;2.25;;;1.05;;
75165;SDS011;63747;48.042;10.088;2023-09-18T12:50:39;2.17;;;1.10;;
75165;SDS011;63747;48.042;10.088;2023-09-18T12:56:40;1.70;;;1.10;;
75165;SDS011;63747;48.042;10.088;2023-09-18T12:59:41;2.17;;;1.27;;
75165;SDS011;63747;48.042;10.088;2023-09-18T13:05:44;2.22;;;1.23;;
75165;SDS011;63747;48.042;10.088;2023-09-18T13:08:47;2.10;;;1.15;;
75165;SDS011;63747;48.042;10.088;2023-09-18T13:11:55;4.60;;;1.35;;
75165;SDS011;63747;48.042;10.088;2023-09-18T13:15:00;2.15;;;1.10;;
75165;SDS011;63747;48.042;10.088;2023-09-18T13:18:09;2.42;;;1.25;;
75165;SDS011;63747;48.042;10.088;2023-09-18T13:21:12;2.45;;;1.00;;
75165;SDS011;63747;48.042;10.088;2023-09-18T13:27:28;2.40;;;1.10;;
75165;SDS011;63747;48.042;10.088;2023-09-18T13:33:31;2.10;;;1.00;;
75165;SDS011;63747;48.042;10.088;2023-09-18T13:36:34;2.15;;;1.10;;
75165;SDS011;63747;48.042;10.088;2023-09-18T13:42:36;3.23;;;1.60;;
75165;SDS011;63747;48.042;10.088;2023-09-18T13:45:38;2.95;;;1.40;;
75165;SDS011;63747;48.042;10.088;2023-09-18T13:48:39;3.40;;;1.10;;
75165;SDS011;63747;48.042;10.088;2023-09-18T13:54:40;1.07;;;0.80;;
75165;SDS011;63747;48.042;10.088;2023-09-18T14:00:41;2.20;;;1.03;;
75165;SDS011;63747;48.042;10.088;2023-09-18T14:03:43;1.48;;;1.10;;
75165;SDS011;63747;48.042;10.088;2023-09-18T14:06:45;1.60;;;1.00;;
75165;SDS011;63747;48.042;10.088;2023-09-18T14:12:46;2.13;;;1.10;;
75165;SDS011;63747;48.042;10.088;2023-09-18T14:18:47;2.00;;;1.00;;
75165;SDS011;63747;48.042;10.088;2023-09-18T14:21:48;1.67;;;0.95;;
75165;SDS011;63747;48.042;10.088;2023-09-18T14:24:52;2.15;;;0.95;;
75165;SDS011;63747;48.042;10.088;2023-09-18T14:27:53;2.75;;;0.80;;
75165;SDS011;63747;48.042;10.088;2023-09-18T14:33:54;1.53;;;1.00;;
75165;SDS011;63747;48.042;10.088;2023-09-18T14:36:55;1.83;;;0.90;;
75165;SDS011;63747;48.042;10.088;2023-09-18T14:39:56;2.72;;;0.88;;
75165;SDS011;63747;48.042;10.088;2023-09-18T14:42:57;3.22;;;0.93;;
75165;SDS011;63747;48.042;10.088;2023-09-18T14:45:58;3.50;;;1.00;;
75165;SDS011;63747;48.042;10.088;2023-09-18T14:52:01;3.47;;;0.90;;
75165;SDS011;63747;48.042;10.088;2023-09-18T14:55:01;1.70;;;0.95;;
75165;SDS011;63747;48.042;10.088;2023-09-18T14:58:05;2.50;;;1.00;;
75165;SDS011;63747;48.042;10.088;2023-09-18T15:01:06;3.03;;;0.80;;
75165;SDS011;63747;48.042;10.088;2023-09-18T15:04:07;1.48;;;0.80;;
75165;SDS011;63747;48.042;10.088;2023-09-18T15:07:09;1.10;;;0.68;;
75165;SDS011;63747;48.042;10.088;2023-09-18T15:10:10;1.92;;;0.93;;
75165;SDS011;63747;48.042;10.088;2023-09-18T15:13:11;1.70;;;0.80;;
75165;SDS011;63747;48.042;10.088;2023-09-18T15:16:13;1.42;;;0.80;;
75165;SDS011;63747;48.042;10.088;2023-09-18T15:19:14;2.78;;;0.90;;
75165;SDS011;63747;48.042;10.088;2023-09-18T15:22:16;2.17;;;0.90;;
75165;SDS011;63747;48.042;10.088;2023-09-18T15:25:17;2.10;;;0.80;;
75165;SDS011;63747;48.042;10.088;2023-09-18T15:28:18;2.47;;;0.70;;
75165;SDS011;63747;48.042;10.088;2023-09-18T15:31:18;1.80;;;1.00;;
75165;SDS011;63747;48.042;10.088;2023-09-18T15:34:19;2.13;;;0.82;;
75165;SDS011;63747;48.042;10.088;2023-09-18T15:37:20;2.25;;;1.02;;
75165;SDS011;63747;48.042;10.088;2023-09-18T15:40:21;4.35;;;1.00;;
75165;SDS011;63747;48.042;10.088;2023-09-18T15:43:24;1.70;;;0.80;;
75165;SDS011;63747;48.042;10.088;2023-09-18T15:46:26;2.13;;;0.90;;
75165;SDS011;63747;48.042;10.088;2023-09-18T15:49:27;1.77;;;0.90;;
75165;SDS011;63747;48.042;10.088;2023-09-18T15:52:31;1.65;;;0.80;;
75165;SDS011;63747;48.042;10.088;2023-09-18T15:55:32;3.30;;;0.90;;
75165;SDS011;63747;48.042;10.088;2023-09-18T15:58:32;1.60;;;0.80;;
75165;SDS011;63747;48.042;10.088;2023-09-18T16:01:34;3.28;;;0.90;;
75165;SDS011;63747;48.042;10.088;2023-09-18T16:04:39;2.40;;;0.90;;
75165;SDS011;63747;48.042;10.088;2023-09-18T16:07:40;2.50;;;0.80;;
75165;SDS011;63747;48.042;10.088;2023-09-18T16:10:41;2.30;;;0.90;;
75165;SDS011;63747;48.042;10.088;2023-09-18T16:13:43;1.58;;;0.73;;
75165;SDS011;63747;48.042;10.088;2023-09-18T16:16:43;2.00;;;0.75;;
75165;SDS011;63747;48.042;10.088;2023-09-18T16:19:45;1.60;;;0.85;;
75165;SDS011;63747;48.042;10.088;2023-09-18T16:22:46;1.85;;;1.00;;
75165;SDS011;63747;48.042;10.088;2023-09-18T16:25:46;1.83;;;0.80;;
75165;SDS011;63747;48.042;10.088;2023-09-18T16:28:47;1.83;;;0.85;;
75165;SDS011;63747;48.042;10.088;2023-09-18T16:31:48;1.02;;;0.77;;
75165;SDS011;63747;48.042;10.088;2023-09-18T16:34:49;1.48;;;0.70;;
75165;SDS011;63747;48.042;10.088;2023-09-18T16:37:50;2.20;;;0.85;;
75165;SDS011;63747;48.042;10.088;2023-09-18T16:40:50;1.25;;;0.85;;
75165;SDS011;63747;48.042;10.088;2023-09-18T16:46:52;3.03;;;0.80;;
75165;SDS011;63747;48.042;10.088;2023-09-18T16:52:53;3.80;;;3.10;;
75165;SDS011;63747;48.042;10.088;2023-09-18T16:58:54;4.17;;;2.37;;
75165;SDS011;63747;48.042;10.088;2023-09-18T17:04:56;2.38;;;1.17;;
75165;SDS011;63747;48.042;10.088;2023-09-18T17:10:58;2.00;;;0.90;;
75165;SDS011;63747;48.042;10.088;2023-09-18T17:17:00;2.08;;;1.00;;
75165;SDS011;63747;48.042;10.088;2023-09-18T17:23:04;1.50;;;1.00;;
75165;SDS011;63747;48.042;10.088;2023-09-18T17:29:05;1.53;;;0.70;;
75165;SDS011;63747;48.042;10.088;2023-09-18T17:35:06;1.40;;;0.80;;
75165;SDS011;63747;48.042;10.088;2023-09-18T17:38:07;2.40;;;0.80;;
75165;SDS011;63747;48.042;10.088;2023-09-18T17:44:09;1.53;;;0.90;;
75165;SDS011;63747;48.042;10.088;2023-09-18T17:47:10;2.75;;;1.10;;
75165;SDS011;63747;48.042;10.088;2023-09-18T17:53:12;1.60;;;1.00;;
75165;SDS011;63747;48.042;10.088;2023-09-18T17:59:13;5.80;;;2.70;;
75165;SDS011;63747;48.042;10.088;2023-09-18T18:02:15;2.25;;;1.00;;
75165;SDS011;63747;48.042;10.088;2023-09-18T18:08:17;1.83;;;1.10;;
75165;SDS011;63747;48.042;10.088;2023-09-18T18:11:18;3.92;;;1.20;;
75165;SDS011;63747;48.042;10.088;2023-09-18T18:14:20;2.67;;;0.85;;
75165;SDS011;63747;48.042;10.088;2023-09-18T18:20:22;3.58;;;0.90;;
75165;SDS011;63747;48.042;10.088;2023-09-18T18:23:23;2.45;;;0.90;;
75165;SDS011;63747;48.042;10.088;2023-09-18T18:26:27;2.80;;;0.75;;
75165;SDS011;63747;48.042;10.088;2023-09-18T18:29:27;2.13;;;1.10;;
75165;SDS011;63747;48.042;10.088;2023-09-18T18:35:29;2.42;;;1.15;;
75165;SDS011;63747;48.042;10.088;2023-09-18T18:41:31;2.07;;;1.30;;
75165;SDS011;63747;48.042;10.088;2023-09-18T18:44:31;3.00;;;1.10;;
75165;SDS011;63747;48.042;10.088;2023-09-18T18:47:32;1.80;;;1.15;;
75165;SDS011;63747;48.042;10.088;2023-09-18T18:50:34;2.28;;;1.00;;
75165;SDS011;63747;48.042;10.088;2023-09-18T18:53:39;1.63;;;0.80;;
75165;SDS011;63747;48.042;10.088;2023-09-18T18:56:40;5.00;;;1.52;;
75165;SDS011;63747;48.042;10.088;2023-09-18T18:59:43;1.52;;;1.00;;
75165;SDS011;63747;48.042;10.088;2023-09-18T19:02:44;1.83;;;0.98;;
75165;SDS011;63747;48.042;10.088;2023-09-18T19:05:45;1.45;;;1.00;;
75165;SDS011;63747;48.042;10.088;2023-09-18T19:08:46;2.28;;;1.13;;
75165;SDS011;63747;48.042;10.088;2023-09-18T19:11:46;2.60;;;1.20;;
75165;SDS011;63747;48.042;10.088;2023-09-18T19:14:50;2.85;;;0.90;;
75165;SDS011;63747;48.042;10.088;2023-09-18T19:17:53;2.42;;;1.17;;
75165;SDS011;63747;48.042;10.088;2023-09-18T19:20:54;2.38;;;1.15;;
75165;SDS011;63747;48.042;10.088;2023-09-18T19:23:54;4.30;;;1.50;;
75165;SDS011;63747;48.042;10.088;2023-09-18T19:26:55;2.08;;;1.05;;
75165;SDS011;63747;48.042;10.088;2023-09-18T19:29:56;4.00;;;1.30;;
75165;SDS011;63747;48.042;10.088;2023-09-18T19:32:56;3.45;;;1.20;;
75165;SDS011;63747;48.042;10.088;2023-09-18T19:35:57;2.45;;;1.35;;
75165;SDS011;63747;48.042;10.088;2023-09-18T19:38:59;2.67;;;1.20;;
75165;SDS011;63747;48.042;10.088;2023-09-18T19:42:00;4.53;;;1.35;;
75165;SDS011;63747;48.042;10.088;2023-09-18T19:45:02;4.13;;;1.30;;
75165;SDS011;63747;48.042;10.088;2023-09-18T19:48:06;2.00;;;1.00;;
75165;SDS011;63747;48.042;10.088;2023-09-18T19:51:08;3.72;;;1.23;;
75165;SDS011;63747;48.042;10.088;2023-09-18T19:54:08;2.58;;;1.13;;
75165;SDS011;63747;48.042;10.088;2023-09-18T19:57:09;1.90;;;1.08;;
75165;SDS011;63747;48.042;10.088;2023-09-18T20:00:10;3.70;;;1.20;;
75165;SDS011;63747;48.042;10.088;2023-09-18T20:03:11;2.80;;;1.23;;
75165;SDS011;63747;48.042;10.088;2023-09-18T20:06:12;5.13;;;1.30;;
75165;SDS011;63747;48.042;10.088;2023-09-18T20:09:13;3.60;;;1.08;;
75165;SDS011;63747;48.042;10.088;2023-09-18T20:12:13;1.67;;;1.00;;
75165;SDS011;63747;48.042;10.088;2023-09-18T20:15:15;1.35;;;0.80;;
75165;SDS011;63747;48.042;10.088;2023-09-18T20:18:17;2.35;;;1.30;;
75165;SDS011;63747;48.042;10.088;2023-09-18T20:21:18;3.67;;;1.30;;
75165;SDS011;63747;48.042;10.088;2023-09-18T20:24:21;2.75;;;1.30;;
75165;SDS011;63747;48.042;10.088;2023-09-18T20:27:21;2.25;;;1.42;;
75165;SDS011;63747;48.042;10.088;2023-09-18T20:30:22;2.15;;;1.23;;
75165;SDS011;63747;48.042;10.088;2023-09-18T20:33:24;2.22;;;1.33;;
75165;SDS011;63747;48.042;10.088;2023-09-18T20:36:24;4.95;;;1.60;;
75165;SDS011;63747;48.042;10.088;2023-09-18T20:39:25;5.78;;;1.80;;
75165;SDS011;63747;48.042;10.088;2023-09-18T20:42:26;3.25;;;1.67;;
75165;SDS011;63747;48.042;10.088;2023-09-18T20:45:28;2.72;;;1.33;;
75165;SDS011;63747;48.042;10.088;2023-09-18T20:48:29;1.88;;;1.00;;
75165;SDS011;63747;48.042;10.088;2023-09-18T20:51:30;1.83;;;1.10;;
75165;SDS011;63747;48.042;10.088;2023-09-18T20:54:33;2.92;;;1.27;;
75165;SDS011;63747;48.042;10.088;2023-09-18T20:57:34;3.40;;;1.35;;
75165;SDS011;63747;48.042;10.088;2023-09-18T21:00:34;2.00;;;1.08;;